Time;durP1;ratioP1;P1;durP2;ratioP2;P2;SDS_P1;SDS_P2;PMS_P1;PMS_P2;Temp;Humidity;BMP_temperature;BMP_pressure;BME280_temperature;BME280_humidity;BME280_pressure;Samples;Min_cycle;Max_cycle;Signal;HPM_P1;HPM_P2
2022/07/11 00:01:17;;;;;;;5.15;1.70;;;;;;;12.94;61.02;100819.48;1720766;81;21080;-87
2022/07/11 00:03:56;;;;;;;3.60;1.05;;;;;;;12.79;61.39;100817.45;1738247;82;21016;-87
2022/07/11 00:06:38;;;;;;;3.45;0.70;;;;;;;12.67;61.66;100820.58;1719804;82;21069;-87
2022/07/11 00:09:14;;;;;;;2.95;1.00;;;;;;;12.53;61.76;100826.84;1741971;82;21534;-87
2022/07/11 00:11:51;;;;;;;4.22;0.88;;;;;;;12.39;62.10;100822.10;1729828;82;21411;-87
2022/07/11 00:14:22;;;;;;;3.62;1.05;;;;;;;12.28;62.31;100818.56;1724740;82;21035;-87
2022/07/11 00:17:09;;;;;;;3.65;1.00;;;;;;;12.18;62.59;100818.03;1720541;82;21272;-87
2022/07/11 00:19:50;;;;;;;5.15;1.17;;;;;;;12.08;62.66;100808.76;1741510;82;21048;-88
2022/07/11 00:22:22;;;;;;;4.25;1.20;;;;;;;12.01;62.93;100805.51;1702238;83;21064;-87
2022/07/11 00:25:09;;;;;;;3.12;0.80;;;;;;;11.92;63.17;100808.48;1735953;82;21014;-87
2022/07/11 00:27:46;;;;;;;4.42;1.10;;;;;;;11.90;63.44;100810.30;1753290;81;21038;-87
2022/07/11 00:30:44;;;;;;;7.47;1.42;;;;;;;11.92;63.69;100805.00;1713920;82;21099;-88
2022/07/11 00:33:06;;;;;;;2.70;1.05;;;;;;;11.85;63.57;100808.25;1718524;82;21055;-88
2022/07/11 00:35:38;;;;;;;3.35;0.82;;;;;;;11.79;63.78;100808.02;1709713;82;21231;-87
2022/07/11 00:38:19;;;;;;;5.58;1.10;;;;;;;11.73;64.03;100802.14;1736457;82;21053;-87
2022/07/11 00:40:52;;;;;;;4.05;1.20;;;;;;;11.68;64.07;100802.75;1753804;81;21269;-87
2022/07/11 00:43:42;;;;;;;2.52;0.80;;;;;;;11.66;64.36;100798.00;1741686;80;21021;-87
2022/07/11 00:46:32;;;;;;;3.40;0.78;;;;;;;11.61;64.43;100795.09;1756481;80;21003;-87
2022/07/11 00:49:15;;;;;;;7.00;1.10;;;;;;;11.61;64.70;100792.47;1759411;80;21492;-86
2022/07/11 00:51:53;;;;;;;7.12;1.02;;;;;;;11.65;64.59;100794.52;1725952;83;21069;-86
2022/07/11 00:54:47;;;;;;;2.62;0.90;;;;;;;11.68;64.80;100789.16;1740929;82;21014;-87
2022/07/11 00:57:26;;;;;;;4.78;1.30;;;;;;;11.69;64.77;100792.64;1729297;82;21525;-86
2022/07/11 01:00:07;;;;;;;3.60;0.90;;;;;;;11.67;64.53;100789.23;1738595;82;21493;-87
2022/07/11 01:02:46;;;;;;;4.55;1.10;;;;;;;11.73;64.85;100788.55;1707921;82;21042;-87
2022/07/11 01:05:17;;;;;;;3.25;0.88;;;;;;;11.71;64.73;100784.26;1723747;82;21057;-86
2022/07/11 01:07:58;;;;;;;3.65;1.30;;;;;;;11.76;64.55;100791.06;1711473;82;21095;-86
2022/07/11 01:10:36;;;;;;;4.47;1.40;;;;;;;11.78;64.73;100793.65;1732599;82;21111;-87
2022/07/11 01:13:23;;;;;;;4.55;0.70;;;;;;;11.77;64.66;100792.77;1734547;82;21015;-86
2022/07/11 01:15:59;;;;;;;3.10;0.70;;;;;;;11.74;64.70;100790.25;1747117;82;21358;-87
2022/07/11 01:18:29;;;;;;;3.00;0.90;;;;;;;11.70;64.80;100795.69;1720361;82;21415;-87
2022/07/11 01:23:41;;;;;;;5.15;1.20;;;;;;;11.75;64.81;100793.30;1709538;82;21091;-87
2022/07/11 01:26:21;;;;;;;5.58;1.30;;;;;;;11.77;64.78;100794.08;1737282;82;21053;-87
2022/07/11 01:29:01;;;;;;;6.12;1.32;;;;;;;11.78;64.67;100797.13;1746524;81;21269;-87
2022/07/11 01:31:35;;;;;;;5.30;1.37;;;;;;;11.80;64.75;100799.67;1737049;82;21017;-87
2022/07/11 01:34:15;;;;;;;5.78;1.20;;;;;;;11.80;64.87;100791.34;1700228;82;21100;-87
2022/07/11 01:37:09;;;;;;;3.55;1.25;;;;;;;11.80;64.84;100798.36;1714620;82;21575;-87
2022/07/11 01:39:40;;;;;;;4.80;1.32;;;;;;;11.76;64.82;100793.69;1718349;82;21025;-87
2022/07/11 01:42:26;;;;;;;3.80;1.30;;;;;;;11.74;64.86;100794.66;1719771;82;21127;-87
2022/07/11 01:45:03;;;;;;;5.33;1.90;;;;;;;11.73;64.95;100787.23;1713787;81;21139;-87
2022/07/11 01:47:50;;;;;;;3.27;1.47;;;;;;;11.74;65.02;100791.56;1703195;82;21091;-87
2022/07/11 01:50:29;;;;;;;5.10;1.52;;;;;;;11.76;65.05;100787.13;1701508;82;21037;-86
2022/07/11 01:53:15;;;;;;;3.85;1.12;;;;;;;11.79;65.18;100796.66;1704458;82;21041;-86
2022/07/11 01:55:57;;;;;;;4.42;1.32;;;;;;;11.81;65.01;100790.91;1708064;82;21363;-87
2022/07/11 01:58:39;;;;;;;4.28;1.65;;;;;;;11.80;65.20;100789.17;1730307;82;21546;-87
2022/07/11 02:01:23;;;;;;;5.03;1.47;;;;;;;11.83;65.27;100791.69;1689533;82;21005;-86
2022/07/11 02:04:06;;;;;;;4.47;1.30;;;;;;;11.82;65.26;100789.98;1733746;82;21096;-87
2022/07/11 02:06:42;;;;;;;5.80;1.25;;;;;;;11.82;65.09;100786.05;1734153;82;21100;-87
2022/07/11 02:09:21;;;;;;;3.98;1.35;;;;;;;11.82;65.09;100784.27;1711233;82;21096;-87
2022/07/11 02:12:03;;;;;;;4.15;1.25;;;;;;;11.82;65.05;100784.73;1733049;82;21060;-86
2022/07/11 02:14:37;;;;;;;4.08;1.45;;;;;;;11.83;65.18;100783.38;1713544;82;21063;-86
2022/07/11 02:17:17;;;;;;;6.87;1.52;;;;;;;11.85;65.15;100787.24;1719711;82;21064;-86
2022/07/11 02:20:09;;;;;;;3.87;1.32;;;;;;;11.86;65.19;100787.70;1722778;82;21005;-87
2022/07/11 02:22:37;;;;;;;5.67;1.30;;;;;;;11.88;65.24;100786.31;1704271;82;21092;-86
2022/07/11 02:25:21;;;;;;;3.77;1.30;;;;;;;11.89;65.36;100785.38;1733131;82;21027;-86
2022/07/11 02:27:53;;;;;;;7.03;1.25;;;;;;;11.90;65.26;100786.66;1717596;82;20997;-86
2022/07/11 02:30:26;;;;;;;4.35;1.30;;;;;;;11.92;65.29;100787.47;1730028;82;21048;-87
2022/07/11 02:33:17;;;;;;;5.35;1.32;;;;;;;11.90;65.20;100783.18;1734713;82;21547;-87
2022/07/11 02:35:51;;;;;;;4.75;1.75;;;;;;;11.90;65.10;100791.06;1729480;82;21065;-86
2022/07/11 02:38:31;;;;;;;4.05;1.30;;;;;;;11.86;65.05;100785.50;1734914;82;21048;-86
2022/07/11 02:41:12;;;;;;;4.15;1.25;;;;;;;11.83;65.08;100789.06;1718415;82;21056;-87
2022/07/11 02:43:58;;;;;;;6.55;1.30;;;;;;;11.80;65.21;100782.61;1703554;82;21052;-87
2022/07/11 02:46:37;;;;;;;6.17;1.30;;;;;;;11.78;65.15;100783.14;1726861;82;21276;-87
2022/07/11 02:49:13;;;;;;;4.30;1.40;;;;;;;11.79;65.36;100790.95;1733853;82;21067;-87
2022/07/11 02:51:50;;;;;;;3.97;1.20;;;;;;;11.80;65.43;100795.73;1710756;82;21596;-87
2022/07/11 02:54:40;;;;;;;6.33;1.27;;;;;;;11.83;65.35;100799.14;1715971;82;21018;-86
2022/07/11 02:57:21;;;;;;;6.37;1.27;;;;;;;11.82;65.34;100799.17;1716601;82;21062;-87
2022/07/11 03:00:00;;;;;;;6.50;1.32;;;;;;;11.82;65.33;100800.03;1727395;82;21040;-88
2022/07/11 03:02:37;;;;;;;4.92;1.20;;;;;;;11.81;65.33;100802.27;1729883;80;23029;-87
2022/07/11 03:05:13;;;;;;;4.55;1.30;;;;;;;11.80;65.47;100801.84;1728991;82;21087;-87
2022/07/11 03:07:48;;;;;;;6.90;1.27;;;;;;;11.81;65.45;100806.66;1732905;80;21052;-87
2022/07/11 03:10:26;;;;;;;5.47;1.27;;;;;;;11.78;65.45;100801.53;1692261;83;21598;-87
2022/07/11 03:13:07;;;;;;;6.47;1.45;;;;;;;11.80;65.58;100804.93;1727975;82;21076;-87
2022/07/11 03:18:16;;;;;;;5.75;1.47;;;;;;;11.79;65.72;100806.70;1675716;82;21038;-87
2022/07/11 03:20:56;;;;;;;3.85;1.22;;;;;;;11.81;65.70;100800.09;1728175;82;21032;-87
2022/07/11 03:23:33;;;;;;;;;;;;;;;11.83;65.78;100799.14;1727881;82;21065;-87
2022/07/11 03:26:15;;;;;;;5.50;1.40;;;;;;;11.83;65.90;100803.50;1742975;80;20645;-87
2022/07/11 03:28:54;;;;;;;2.83;1.15;;;;;;;11.86;65.93;100804.77;1728439;82;21506;-88
2022/07/11 03:31:30;;;;;;;5.35;1.30;;;;;;;11.87;66.10;100792.48;1739329;80;21058;-87
2022/07/11 03:34:18;;;;;;;4.37;1.42;;;;;;;11.95;66.18;100796.55;1704777;82;21057;-87
2022/07/11 03:37:10;;;;;;;7.55;1.30;;;;;;;11.96;66.10;100795.63;1711763;82;21052;-87
2022/07/11 03:39:51;;;;;;;7.92;1.42;;;;;;;12.00;66.17;100793.30;1720404;82;20997;-88
2022/07/11 03:42:25;;;;;;;4.03;1.22;;;;;;;12.04;66.22;100796.66;1721316;82;21135;-86
2022/07/11 03:45:04;;;;;;;;;;;;;;;12.11;66.21;100803.84;1733298;82;21053;-87
2022/07/11 03:47:47;;;;;;;4.47;0.98;;;;;;;12.12;66.34;100799.02;1722964;82;20193;-86
2022/07/11 03:50:40;;;;;;;3.55;1.00;;;;;;;12.13;66.31;100802.03;1720659;82;21013;-86
2022/07/11 03:53:23;;;;;;;6.20;1.30;;;;;;;12.14;66.28;100812.50;1730328;82;21048;-87
2022/07/11 03:55:40;;;;;;;5.80;1.27;;;;;;;12.17;66.43;100812.38;1713821;80;21051;-87
2022/07/11 03:58:18;;;;;;;5.78;1.05;;;;;;;12.18;66.37;100810.14;1732622;82;21063;-87
2022/07/11 04:00:49;;;;;;;5.42;1.42;;;;;;;12.20;66.55;100814.89;1755909;80;21051;-87
2022/07/11 04:03:25;;;;;;;7.70;1.87;;;;;;;12.25;66.49;100814.73;1740563;80;21391;-87
2022/07/11 04:05:56;;;;;;;5.00;1.50;;;;;;;12.25;66.41;100811.64;1716635;80;21112;-87
2022/07/11 04:08:37;;;;;;;5.28;1.55;;;;;;;12.26;66.51;100814.66;1733629;82;21204;-87
2022/07/11 04:11:17;;;;;;;4.22;1.40;;;;;;;12.29;66.63;100822.89;1729284;81;21046;-86
2022/07/11 04:13:56;;;;;;;5.58;1.17;;;;;;;12.34;66.58;100820.95;1729468;82;27130;-87
2022/07/11 04:16:32;;;;;;;6.33;1.57;;;;;;;12.37;66.69;100814.26;1712034;82;21056;-87
2022/07/11 04:19:01;;;;;;;3.70;1.00;;;;;;;12.43;66.74;100817.96;1731658;81;21045;-87
2022/07/11 04:21:38;;;;;;;6.60;1.07;;;;;;;12.48;66.81;100823.91;1728384;81;21313;-85
2022/07/11 04:24:10;;;;;;;3.50;1.10;;;;;;;12.54;66.75;100818.88;1747199;80;21470;-87
2022/07/11 04:26:49;;;;;;;3.70;0.98;;;;;;;12.60;66.85;100818.62;1738195;81;21017;-87
2022/07/11 04:29:32;;;;;;;6.67;1.42;;;;;;;12.66;66.79;100822.33;1748436;80;21038;-87
2022/07/11 04:32:10;;;;;;;4.78;1.27;;;;;;;12.73;66.81;100822.50;1745728;81;21581;-87
2022/07/11 04:34:47;;;;;;;5.67;1.20;;;;;;;12.80;66.81;100820.94;1699682;83;21527;-87
2022/07/11 04:37:30;;;;;;;4.70;1.02;;;;;;;12.85;66.86;100826.41;1743130;81;21435;-88
2022/07/11 04:40:18;;;;;;;2.58;0.90;;;;;;;12.90;66.80;100828.88;1741132;80;21052;-87
2022/07/11 04:42:57;;;;;;;4.10;0.90;;;;;;;12.94;66.74;100830.02;1727557;81;21002;-87
2022/07/11 04:45:37;;;;;;;5.33;1.37;;;;;;;12.98;66.69;100831.20;1728344;80;21585;-87
2022/07/11 04:48:13;;;;;;;4.03;1.20;;;;;;;13.01;66.71;100829.77;1735856;80;21282;-86
2022/07/11 04:50:54;;;;;;;3.55;0.90;;;;;;;13.03;66.58;100835.83;1746655;81;21081;-87
2022/07/11 04:53:37;;;;;;;6.67;1.50;;;;;;;13.04;66.57;100830.95;1738374;81;21055;-87
2022/07/11 04:56:14;;;;;;;4.10;1.02;;;;;;;13.06;66.69;100832.61;1714073;81;21048;-86
2022/07/11 04:58:52;;;;;;;4.47;0.93;;;;;;;13.09;66.68;100827.68;1722930;80;21072;-83
2022/07/11 05:01:17;;;;;;;4.37;1.00;;;;;;;13.13;66.71;100836.68;1747538;81;21696;-79
2022/07/11 05:03:45;;;;;;;8.05;1.70;;;;;;;13.16;66.75;100828.69;1748088;81;21107;-82
2022/07/11 05:06:12;;;;;;;7.50;1.27;;;;;;;13.22;66.77;100833.28;1737956;81;21092;-85
2022/07/11 05:08:39;;;;;;;5.97;1.30;;;;;;;13.29;66.86;100836.10;1737653;81;21068;-83
2022/07/11 05:11:06;;;;;;;5.03;1.50;;;;;;;13.37;67.00;100832.23;1734794;81;21092;-82
2022/07/11 05:13:32;;;;;;;7.05;1.30;;;;;;;13.51;67.24;100834.75;1732012;80;21131;-83
2022/07/11 05:15:59;;;;;;;6.65;1.50;;;;;;;13.59;67.00;100830.02;1735059;81;21081;-82
2022/07/11 05:18:26;;;;;;;5.53;1.20;;;;;;;13.67;66.90;100837.13;1733905;81;21642;-82
2022/07/11 05:20:53;;;;;;;3.87;1.10;;;;;;;13.75;66.86;100838.97;1732125;81;21128;-82
2022/07/11 05:23:20;;;;;;;8.45;1.35;;;;;;;13.82;66.83;100839.55;1727586;81;21083;-84
2022/07/11 05:25:47;;;;;;;4.62;1.12;;;;;;;13.90;66.89;100845.81;1727672;80;21702;-84
2022/07/11 05:28:14;;;;;;;6.85;1.87;;;;;;;13.96;66.82;100850.34;1732162;81;21057;-83
2022/07/11 05:30:41;;;;;;;8.73;1.22;;;;;;;14.04;66.75;100840.78;1733757;81;21323;-83
2022/07/11 05:33:08;;;;;;;5.45;1.20;;;;;;;14.12;66.74;100845.72;1734296;80;20958;-83
2022/07/11 05:35:35;;;;;;;5.42;1.60;;;;;;;14.20;66.68;100849.72;1732381;81;21606;-83
2022/07/11 05:38:02;;;;;;;6.40;1.47;;;;;;;14.26;66.56;100850.75;1728552;80;21265;-83
2022/07/11 05:40:29;;;;;;;5.10;1.30;;;;;;;14.31;66.41;100849.23;1730095;81;21048;-83
2022/07/11 05:42:56;;;;;;;6.97;1.65;;;;;;;14.35;66.39;100849.95;1733207;80;21048;-83
2022/07/11 05:45:23;;;;;;;5.55;1.57;;;;;;;14.35;66.20;100849.48;1727698;81;21549;-82
2022/07/11 05:47:50;;;;;;;3.25;1.32;;;;;;;14.35;66.38;100845.52;1733804;81;21044;-84
2022/07/11 05:50:17;;;;;;;6.05;1.50;;;;;;;14.32;66.38;100849.63;1732880;81;21209;-84
2022/07/11 05:52:44;;;;;;;4.20;1.17;;;;;;;14.24;66.33;100847.36;1740101;81;21095;-84
2022/07/11 05:55:10;;;;;;;7.15;1.70;;;;;;;14.22;66.67;100857.58;1740559;81;21147;-84
2022/07/11 05:57:38;;;;;;;7.08;1.45;;;;;;;14.19;66.74;100860.32;1746982;81;21114;-84
2022/07/11 06:00:05;;;;;;;3.65;1.10;;;;;;;14.17;66.96;100860.87;1734950;81;21099;-83
2022/07/11 06:02:34;;;;;;;4.08;1.55;;;;;;;14.18;67.04;100853.34;1746600;81;21106;-84
2022/07/11 06:05:01;;;;;;;5.72;1.27;;;;;;;14.16;66.96;100860.02;1745958;81;21075;-83
2022/07/11 06:10:15;;;;;;;7.78;1.42;;;;;;;14.25;67.31;100860.92;1733136;81;21076;-84
2022/07/11 06:12:43;;;;;;;5.72;1.67;;;;;;;14.33;67.27;100860.58;1744136;81;21067;-84
2022/07/11 06:15:11;;;;;;;2.42;0.82;;;;;;;14.41;67.33;100861.09;1735464;81;21331;-84
2022/07/11 06:17:38;;;;;;;6.03;1.27;;;;;;;14.47;67.33;100858.16;1741043;81;20965;-85
2022/07/11 06:20:06;;;;;;;4.12;1.10;;;;;;;14.55;67.33;100863.56;1744456;81;21053;-83
2022/07/11 06:22:32;;;;;;;5.92;1.27;;;;;;;14.58;67.40;100863.45;1743867;81;21561;-83
2022/07/11 06:24:59;;;;;;;5.95;1.30;;;;;;;14.66;67.49;100862.60;1741952;81;21540;-84
2022/07/11 06:27:27;;;;;;;4.92;1.40;;;;;;;14.72;67.25;100857.91;1735583;81;21122;-84
2022/07/11 06:29:53;;;;;;;6.10;1.72;;;;;;;14.76;67.23;100863.05;1728219;81;21041;-82
2022/07/11 06:32:20;;;;;;;4.83;1.50;;;;;;;14.78;67.19;100867.80;1723924;81;21083;-84
2022/07/11 06:34:47;;;;;;;7.55;1.50;;;;;;;14.78;67.13;100866.47;1725652;81;21076;-83
2022/07/11 06:37:14;;;;;;;5.35;1.47;;;;;;;14.79;67.05;100861.58;1736728;81;21126;-81
2022/07/11 06:39:41;;;;;;;9.48;2.25;;;;;;;14.79;67.08;100858.47;1733225;81;21123;-80
2022/07/11 06:42:08;;;;;;;8.48;1.92;;;;;;;14.80;67.06;100862.84;1735889;81;21080;-86
2022/07/11 06:44:35;;;;;;;8.05;1.20;;;;;;;14.83;67.02;100864.02;1746852;81;21493;-84
2022/07/11 06:47:03;;;;;;;6.20;1.50;;;;;;;14.89;67.31;100870.31;1745584;81;21064;-84
2022/07/11 06:49:30;;;;;;;6.00;1.15;;;;;;;15.00;67.40;100864.52;1749446;81;21060;-81
2022/07/11 06:51:57;;;;;;;6.75;2.35;;;;;;;15.09;67.25;100862.75;1749558;80;21097;-81
2022/07/11 06:54:24;;;;;;;7.55;1.57;;;;;;;15.14;67.23;100859.89;1749596;80;21570;-81
2022/07/11 06:56:51;;;;;;;7.90;1.62;;;;;;;15.21;67.41;100858.65;1749389;81;21100;-80
2022/07/11 06:59:18;;;;;;;3.80;1.22;;;;;;;15.29;67.37;100858.28;1749681;80;21732;-81
2022/07/11 07:01:45;;;;;;;4.25;1.10;;;;;;;15.36;67.31;100853.95;1737354;81;21064;-80
2022/07/11 07:04:12;;;;;;;4.17;1.20;;;;;;;15.45;67.32;100858.38;1749634;81;21158;-82
2022/07/11 07:06:39;;;;;;;7.25;1.40;;;;;;;15.52;67.13;100855.36;1734346;80;21060;-82
2022/07/11 07:09:06;;;;;;;4.97;1.10;;;;;;;15.60;67.08;100862.88;1743194;80;20976;-82
2022/07/11 07:11:33;;;;;;;5.22;1.30;;;;;;;15.64;66.74;100865.77;1749406;80;21049;-83
2022/07/11 07:14:00;;;;;;;7.20;1.40;;;;;;;15.67;66.85;100864.29;1749492;81;21124;-83
2022/07/11 07:16:27;;;;;;;9.88;1.60;;;;;;;15.73;66.75;100865.80;1749043;81;21956;-84
2022/07/11 07:18:54;;;;;;;6.10;1.27;;;;;;;15.78;66.60;100863.78;1738899;81;21057;-84
2022/07/11 07:21:21;;;;;;;9.55;2.60;;;;;;;15.82;66.52;100872.80;1749277;81;21072;-82
2022/07/11 07:23:48;;;;;;;5.92;1.90;;;;;;;15.89;66.61;100869.36;1749574;81;21060;-83
2022/07/11 07:26:15;;;;;;;6.15;1.55;;;;;;;15.98;66.55;100872.84;1749286;80;21505;-82
2022/07/11 07:28:42;;;;;;;5.45;1.27;;;;;;;16.07;66.48;100868.86;1746630;81;21247;-81
2022/07/11 07:31:11;;;;;;;7.83;1.65;;;;;;;16.18;66.65;100868.30;1721824;80;21518;-82
2022/07/11 07:33:38;;;;;;;5.40;1.32;;;;;;;16.45;66.48;100854.07;1722187;80;21104;-81
2022/07/11 07:36:07;;;;;;;5.80;1.30;;;;;;;16.45;66.48;100854.07;1728792;81;21057;-82
2022/07/11 07:38:34;;;;;;;5.75;1.15;;;;;;;16.59;66.17;100858.14;1721169;80;21016;-82
2022/07/11 07:41:01;;;;;;;7.25;1.30;;;;;;;16.65;65.98;100864.88;1739117;80;21121;-83
2022/07/11 07:43:28;;;;;;;5.72;1.75;;;;;;;16.71;65.76;100864.09;1721882;81;21052;-84
2022/07/11 07:45:54;;;;;;;5.97;1.72;;;;;;;16.76;65.56;100869.11;1747921;80;21060;-85
2022/07/11 07:48:21;;;;;;;8.50;1.60;;;;;;;16.75;65.05;100871.39;1749362;80;21061;-83
2022/07/11 07:50:48;;;;;;;4.25;1.40;;;;;;;16.73;65.00;100877.23;1726712;81;21071;-88
2022/07/11 07:53:16;;;;;;;4.55;1.22;;;;;;;16.77;64.88;100874.84;1741986;80;21274;-88
2022/07/11 07:55:43;;;;;;;5.40;1.67;;;;;;;16.85;64.70;100874.39;1737381;80;21562;-87
2022/07/11 07:58:10;;;;;;;4.15;1.40;;;;;;;16.87;64.40;100873.85;1733894;81;21013;-87
2022/07/11 08:03:22;;;;;;;7.30;1.30;;;;;;;16.94;64.30;100866.81;1733209;81;21080;-86
2022/07/11 08:05:49;;;;;;;4.95;1.52;;;;;;;17.01;64.13;100871.75;1728957;81;21088;-83
2022/07/11 08:08:16;;;;;;;4.20;1.02;;;;;;;17.08;64.10;100875.78;1719760;81;21115;-85
2022/07/11 08:10:43;;;;;;;4.45;1.57;;;;;;;17.13;63.87;100870.60;1727140;80;21060;-87
2022/07/11 08:13:10;;;;;;;5.70;1.75;;;;;;;17.16;63.79;100871.75;1732847;80;21076;-83
2022/07/11 08:15:38;;;;;;;3.35;1.00;;;;;;;17.23;63.75;100868.73;1743973;81;21032;-87
2022/07/11 08:18:05;;;;;;;6.90;1.17;;;;;;;17.29;63.69;100869.70;1734136;81;21948;-87
2022/07/11 08:20:32;;;;;;;7.35;1.52;;;;;;;17.30;63.26;100868.31;1747903;81;21041;-85
2022/07/11 08:23:01;;;;;;;4.70;1.12;;;;;;;17.31;63.17;100863.86;1740479;81;21017;-86
2022/07/11 08:25:28;;;;;;;4.10;1.20;;;;;;;17.36;63.29;100867.09;1744825;81;21068;-90
2022/07/11 08:27:55;;;;;;;5.50;1.10;;;;;;;17.43;63.05;100871.11;1732609;80;21295;-82
2022/07/11 08:30:22;;;;;;;3.42;0.82;;;;;;;17.50;62.83;100870.27;1722746;81;21129;-81
2022/07/11 08:32:49;;;;;;;5.25;0.93;;;;;;;17.59;62.81;100873.70;1719527;81;21076;-83
2022/07/11 08:35:16;;;;;;;3.25;0.90;;;;;;;17.69;62.46;100862.09;1719734;81;21052;-86
2022/07/11 08:37:43;;;;;;;6.80;1.00;;;;;;;17.83;62.49;100857.70;1729032;81;21048;-78
2022/07/11 08:40:11;;;;;;;6.20;1.47;;;;;;;17.93;62.12;100872.59;1724517;81;21225;-78
2022/07/11 08:42:44;;;;;;;5.87;1.50;;;;;;;18.03;61.89;100868.91;1731548;81;21932;-76
2022/07/11 08:45:12;;;;;;;3.00;0.90;;;;;;;18.19;61.85;100872.33;1749601;81;21064;-79
2022/07/11 08:47:40;;;;;;;5.08;0.90;;;;;;;18.26;61.45;100873.67;1747556;80;21608;-78
2022/07/11 08:50:09;;;;;;;2.95;0.93;;;;;;;18.33;61.25;100864.00;1749209;80;21061;-79
2022/07/11 08:52:37;;;;;;;2.80;0.85;;;;;;;18.43;60.97;100863.81;1743601;81;22419;-78
2022/07/11 08:55:09;;;;;;;4.00;1.30;;;;;;;18.48;60.69;100869.21;1736064;80;21187;-81
2022/07/11 08:57:37;;;;;;;5.20;1.10;;;;;;;18.53;60.55;100872.03;1720080;81;21507;-81
2022/07/11 09:00:09;;;;;;;3.47;0.78;;;;;;;18.60;60.38;100873.37;1736070;80;21541;-81
2022/07/11 09:02:36;;;;;;;3.65;0.90;;;;;;;18.58;59.82;100863.31;1730626;80;21325;-81
2022/07/11 09:05:09;;;;;;;3.90;0.85;;;;;;;18.57;59.73;100862.91;1732953;80;21523;-81
2022/07/11 09:07:43;;;;;;;2.40;0.90;;;;;;;18.56;59.55;100866.05;1737677;81;21170;-80
2022/07/11 09:10:10;;;;;;;4.22;0.85;;;;;;;18.56;59.35;100859.89;1731002;81;21037;-82
2022/07/11 09:12:39;;;;;;;3.85;0.90;;;;;;;18.58;59.37;100869.47;1741110;81;20954;-80
2022/07/11 09:15:07;;;;;;;3.52;0.90;;;;;;;18.61;59.23;100863.12;1734852;81;21104;-87
2022/07/11 09:17:35;;;;;;;5.70;0.90;;;;;;;18.66;59.15;100864.53;1725583;80;21147;-83
2022/07/11 09:20:03;;;;;;;2.90;0.80;;;;;;;18.73;59.02;100860.55;1722004;81;21128;-87
2022/07/11 09:27:57;;;;;;;5.83;1.10;;;;;;;18.95;58.87;100853.86;1727813;80;21053;-82
2022/07/11 09:30:31;;;;;;;5.78;0.95;;;;;;;19.06;58.76;100854.50;1722396;80;21128;-82
2022/07/11 09:33:10;;;;;;;5.90;1.07;;;;;;;19.16;58.70;100848.48;1721630;80;21156;-83
2022/07/11 09:35:46;;;;;;;7.70;1.12;;;;;;;19.22;58.30;100843.23;1713954;83;21838;-83
2022/07/11 09:38:16;;;;;;;5.87;1.20;;;;;;;19.16;57.84;100847.16;1714315;82;21562;-82
2022/07/11 09:40:46;;;;;;;4.05;1.37;;;;;;;19.09;57.74;100844.55;1717161;82;21108;-82
2022/07/11 09:43:15;;;;;;;7.37;1.80;;;;;;;19.14;58.01;100833.11;1717441;80;21025;-84
2022/07/11 09:45:42;;;;;;;4.28;1.22;;;;;;;19.33;58.21;100835.41;1746408;80;21151;-83
2022/07/11 09:48:13;;;;;;;3.58;1.10;;;;;;;19.48;57.93;100832.66;1747154;81;21459;-82
2022/07/11 09:50:45;;;;;;;3.12;0.78;;;;;;;19.65;57.80;100822.21;1746941;82;21538;-79
2022/07/11 09:53:14;;;;;;;2.83;0.78;;;;;;;19.66;57.15;100825.30;1745012;80;20986;-83
2022/07/11 09:55:50;;;;;;;4.45;1.07;;;;;;;19.60;56.83;100826.53;1747129;80;21057;-83
2022/07/11 09:58:17;;;;;;;2.85;0.90;;;;;;;19.52;56.60;100819.07;1730124;82;21280;-83
2022/07/11 10:00:45;;;;;;;3.00;0.82;;;;;;;19.44;56.46;100809.91;1743065;80;21013;-82
2022/07/11 10:03:13;;;;;;;4.62;0.75;;;;;;;19.40;56.31;100822.57;1747076;82;21492;-82
2022/07/11 10:05:41;;;;;;;3.70;0.93;;;;;;;19.41;56.22;100821.60;1746915;80;21044;-76
2022/07/11 10:08:08;;;;;;;3.55;0.78;;;;;;;19.54;56.49;100807.86;1747185;80;21285;-82
2022/07/11 10:10:35;;;;;;;2.60;0.75;;;;;;;19.77;56.62;100814.28;1725872;80;21102;-82
2022/07/11 10:13:02;;;;;;;2.67;0.68;;;;;;;19.92;56.13;100809.70;1747160;80;21085;-82
2022/07/11 10:15:37;;;;;;;4.17;0.72;;;;;;;20.03;55.68;100805.81;1746859;82;21085;-83
2022/07/11 10:18:43;;;;;;;2.75;0.60;;;;;;;20.16;55.28;100806.30;1738221;82;21072;-84
2022/07/11 10:21:18;;;;;;;3.50;0.70;;;;;;;20.33;55.06;100803.27;1742111;80;21010;-83
2022/07/11 10:23:51;;;;;;;2.65;0.90;;;;;;;20.55;54.41;100797.77;1746801;82;21170;-83
2022/07/11 10:26:49;;;;;;;1.10;0.50;;;;;;;20.77;54.46;100799.72;1746631;80;21034;-82
2022/07/11 10:29:27;;;;;;;2.40;0.40;;;;;;;21.23;54.34;100797.61;1745928;80;21491;-83
2022/07/11 10:32:10;;;;;;;2.67;0.50;;;;;;;21.57;53.41;100814.62;1746725;82;21585;-83
2022/07/11 10:34:37;;;;;;;5.10;0.40;;;;;;;21.49;52.36;100798.35;1747229;80;21482;-83
2022/07/11 10:37:07;;;;;;;2.17;0.50;;;;;;;21.48;51.99;100797.51;1746841;80;21939;-83
2022/07/11 10:39:36;;;;;;;2.83;0.42;;;;;;;21.47;51.69;100798.45;1747068;80;21025;-83
2022/07/11 10:42:11;;;;;;;3.02;0.50;;;;;;;21.54;51.38;100803.70;1741726;80;21518;-82
2022/07/11 10:44:54;;;;;;;1.90;0.40;;;;;;;21.61;51.02;100790.73;1732587;82;21466;-83
2022/07/11 10:47:43;;;;;;;1.45;0.50;;;;;;;21.67;50.59;100792.95;1739358;80;21136;-83
2022/07/11 10:50:24;;;;;;;1.10;0.35;;;;;;;21.84;50.38;100802.30;1731710;80;21187;-83
2022/07/11 10:52:56;;;;;;;2.33;0.50;;;;;;;22.00;50.06;100793.92;1762152;80;21454;-83
2022/07/11 10:55:46;;;;;;;1.50;0.40;;;;;;;22.01;49.58;100801.83;1763219;80;21052;-83
2022/07/11 10:58:27;;;;;;;1.82;0.53;;;;;;;21.93;49.33;100803.41;1763385;80;21049;-84
2022/07/11 11:01:16;;;;;;;2.42;0.40;;;;;;;21.78;49.22;100808.97;1763475;80;21024;-82
2022/07/11 11:03:44;;;;;;;3.42;0.60;;;;;;;21.61;48.65;100806.24;1763570;81;21792;-84
2022/07/11 11:06:12;;;;;;;1.77;0.72;;;;;;;21.42;49.04;100809.11;1712748;82;20980;-83
2022/07/11 11:08:45;;;;;;;1.47;0.55;;;;;;;21.27;48.82;100802.61;1752264;81;21568;-82
2022/07/11 11:11:29;;;;;;;2.65;0.42;;;;;;;21.09;49.02;100798.19;1763211;80;21115;-83
2022/07/11 11:14:19;;;;;;;2.00;0.55;;;;;;;21.00;49.08;100803.34;1733018;82;21519;-83
2022/07/11 11:16:48;;;;;;;3.75;0.70;;;;;;;20.79;48.81;100809.30;1747455;80;21078;-80
2022/07/11 11:19:51;;;;;;;5.57;0.80;;;;;;;20.68;49.28;100816.75;1763377;81;21557;-83
2022/07/11 11:22:21;;;;;;;6.20;0.82;;;;;;;20.47;49.90;100828.42;1763419;80;21656;-89
2022/07/11 11:24:54;;;;;;;3.42;0.80;;;;;;;19.34;51.66;100834.47;1763335;80;21370;-86
2022/07/11 11:27:24;;;;;;;2.52;0.65;;;;;;;18.39;53.15;100844.55;1755445;81;21509;-86
2022/07/11 11:29:55;;;;;;;2.55;0.72;;;;;;;17.83;54.75;100840.46;1763473;80;21157;-82
2022/07/11 11:32:31;;;;;;;3.25;0.78;;;;;;;17.45;56.48;100836.08;1749994;82;21434;-84
2022/07/11 11:34:59;;;;;;;1.85;0.50;;;;;;;17.12;57.35;100833.59;1728976;82;21555;-85
2022/07/11 11:37:26;;;;;;;1.30;0.50;;;;;;;17.11;58.91;100846.47;1750315;82;21017;-80
2022/07/11 11:40:00;;;;;;;1.10;0.40;;;;;;;17.38;59.58;100837.40;1750137;82;21013;-79
2022/07/11 11:42:30;;;;;;;3.62;0.50;;;;;;;17.81;60.00;100842.34;1740234;82;21116;-79
2022/07/11 11:45:04;;;;;;;1.98;0.53;;;;;;;18.05;59.70;100842.66;1740295;82;21049;-79
2022/07/11 11:47:31;;;;;;;2.08;0.53;;;;;;;18.16;59.59;100854.42;1750412;82;21041;-78
2022/07/11 11:49:59;;;;;;;2.92;0.50;;;;;;;18.06;59.09;100904.05;1747977;82;21057;-79
2022/07/11 11:52:29;;;;;;;3.33;0.45;;;;;;;17.64;59.13;100943.69;1747330;82;21053;-83
2022/07/11 11:54:58;;;;;;;;;;;;;;;17.11;59.66;100945.79;1732533;82;21116;-83
2022/07/11 11:57:28;;;;;;;2.50;0.40;;;;;;;16.62;60.97;100949.27;1728024;80;20168;-81
2022/07/11 11:59:57;;;;;;;2.50;0.47;;;;;;;16.24;61.79;100945.55;1705113;81;21058;-77
2022/07/11 12:02:28;;;;;;;2.75;0.50;;;;;;;15.92;62.81;100948.52;1727772;81;21050;-77
2022/07/11 12:04:58;;;;;;;2.08;0.70;;;;;;;15.66;64.01;100939.23;1717178;82;21074;-76
2022/07/11 12:07:28;;;;;;;3.20;0.62;;;;;;;15.51;65.15;100943.45;1704657;81;21142;-76
2022/07/11 12:09:59;;;;;;;3.05;0.90;;;;;;;15.41;65.82;100943.53;1730789;81;21476;-78
2022/07/11 12:12:44;;;;;;;4.65;1.10;;;;;;;15.22;67.74;100942.71;1712078;82;20922;-78